Time;durP1;ratioP1;P1;durP2;ratioP2;P2;SDS_P1;SDS_P2;PMS_P1;PMS_P2;Temp;Humidity;BMP_temperature;BMP_pressure;BME280_temperature;BME280_humidity;BME280_pressure;Samples;Min_cycle;Max_cycle;Signal;HPM_P1;HPM_P2
2022/09/02 00:01:32;;;;;;;4.25;1.70;;;;;;;16.36;53.86;101602.91;5042367;28;20029;-73
2022/09/02 00:04:01;;;;;;;3.75;2.00;;;;;;;16.35;54.38;101598.56;5037252;28;20060;-73
2022/09/02 00:06:28;;;;;;;3.28;1.80;;;;;;;16.30;54.56;101594.38;5031619;28;20477;-73
2022/09/02 00:08:53;;;;;;;3.97;1.92;;;;;;;16.19;54.57;101581.59;5038551;28;20049;-73
2022/09/02 00:11:23;;;;;;;3.28;1.77;;;;;;;16.17;54.47;101591.31;5035828;28;20622;-73
2022/09/02 00:13:50;;;;;;;4.13;2.40;;;;;;;16.17;54.95;101598.34;5044908;28;20033;-73
2022/09/02 00:16:16;;;;;;;4.65;1.80;;;;;;;16.16;54.80;101581.69;5041144;28;20496;-73
2022/09/02 00:18:43;;;;;;;6.90;2.35;;;;;;;16.14;55.11;101584.38;5048148;28;20063;-73
2022/09/02 00:21:10;;;;;;;6.03;1.88;;;;;;;16.10;54.95;101588.03;5050987;28;20055;-73
2022/09/02 00:23:37;;;;;;;6.00;1.80;;;;;;;16.09;55.07;101586.31;5030467;28;20040;-73
2022/09/02 00:26:03;;;;;;;3.03;1.70;;;;;;;16.02;55.23;101579.56;5046881;28;20024;-73
2022/09/02 00:28:28;;;;;;;8.65;2.20;;;;;;;16.05;55.46;101586.47;5035550;28;20559;-73
2022/09/02 00:30:53;;;;;;;3.13;1.85;;;;;;;16.07;55.01;101588.13;5043189;28;20488;-73
2022/09/02 00:33:19;;;;;;;7.07;2.22;;;;;;;16.08;55.67;101583.72;5035842;28;20055;-73
2022/09/02 00:35:44;;;;;;;6.65;2.13;;;;;;;16.01;54.88;101577.81;5028927;28;20083;-73
2022/09/02 00:38:09;;;;;;;5.45;2.00;;;;;;;16.00;55.06;101573.47;5025861;28;20067;-73
2022/09/02 00:40:36;;;;;;;4.97;1.95;;;;;;;15.91;55.61;101582.53;5045739;28;20029;-73
2022/09/02 00:43:05;;;;;;;3.13;1.90;;;;;;;15.84;56.11;101569.66;5033052;28;20025;-73
2022/09/02 00:45:30;;;;;;;2.55;1.95;;;;;;;15.89;56.47;101576.50;5044720;28;20100;-73
2022/09/02 00:47:55;;;;;;;4.85;2.17;;;;;;;15.86;55.97;101571.34;5035153;28;20573;-73
2022/09/02 00:50:25;;;;;;;2.83;1.75;;;;;;;15.85;56.41;101579.25;5031821;28;20068;-73
2022/09/02 00:53:01;;;;;;;5.70;2.20;;;;;;;15.84;55.91;101567.03;5040257;28;20021;-73
2022/09/02 00:55:31;;;;;;;7.40;2.22;;;;;;;15.85;56.44;101571.38;5052928;28;20036;-73
2022/09/02 00:58:22;;;;;;;6.05;2.20;;;;;;;15.83;55.49;101571.44;5047690;28;20028;-73
2022/09/02 01:00:51;;;;;;;4.93;2.10;;;;;;;15.74;56.67;101568.25;5035271;28;20024;-73
2022/09/02 01:03:19;;;;;;;2.33;1.80;;;;;;;15.73;56.19;101561.25;5040101;28;20206;-73
2022/09/02 01:05:47;;;;;;;4.20;2.20;;;;;;;15.71;56.87;101565.72;5037236;28;20385;-73
2022/09/02 01:08:18;;;;;;;5.28;2.35;;;;;;;15.65;57.16;101564.97;5039523;28;20025;-73
2022/09/02 01:10:44;;;;;;;5.03;2.35;;;;;;;15.67;57.35;101568.44;5028960;28;20405;-73
2022/09/02 01:13:14;;;;;;;3.00;2.08;;;;;;;15.57;57.04;101572.25;5032070;28;20575;-73
2022/09/02 01:15:43;;;;;;;4.38;2.05;;;;;;;15.56;57.39;101557.38;5032679;28;20034;-73
2022/09/02 01:18:13;;;;;;;3.72;2.10;;;;;;;15.59;57.19;101562.53;5035841;28;20523;-73
2022/09/02 01:20:38;;;;;;;5.20;2.00;;;;;;;15.53;57.37;101562.78;5049751;28;20128;-73
2022/09/02 01:23:04;;;;;;;3.85;2.00;;;;;;;15.50;57.04;101557.59;5037904;28;20055;-73
2022/09/02 01:25:32;;;;;;;4.13;2.33;;;;;;;15.44;57.64;101561.28;5028015;28;20034;-73
2022/09/02 01:28:03;;;;;;;3.50;2.00;;;;;;;15.48;58.30;101555.94;5043571;28;20025;-73
2022/09/02 01:30:30;;;;;;;4.38;2.08;;;;;;;15.42;58.28;101562.25;5039375;28;20512;-73
2022/09/02 01:32:56;;;;;;;5.18;2.20;;;;;;;15.37;58.15;101556.28;5043385;28;20483;-73
2022/09/02 01:35:21;;;;;;;4.32;2.00;;;;;;;15.35;58.74;101543.19;5043137;28;20124;-73
2022/09/02 01:37:47;;;;;;;2.75;2.17;;;;;;;15.34;58.66;101551.97;5052141;28;20033;-73
2022/09/02 01:40:15;;;;;;;4.95;2.17;;;;;;;15.29;58.45;101556.50;5050994;28;20029;-73
2022/09/02 01:42:42;;;;;;;5.47;2.10;;;;;;;15.26;58.51;101551.34;5052329;28;20106;-73
2022/09/02 01:45:08;;;;;;;6.97;2.30;;;;;;;15.19;58.84;101545.44;5051861;28;20572;-73
2022/09/02 01:47:35;;;;;;;6.07;2.22;;;;;;;15.16;59.34;101545.53;5049632;28;20116;-74
2022/09/02 01:50:00;;;;;;;5.07;2.15;;;;;;;15.19;59.44;101549.84;5052071;28;20017;-73
2022/09/02 01:52:28;;;;;;;15.07;2.58;;;;;;;15.12;59.49;101543.91;5036761;28;20040;-73
2022/09/02 01:54:53;;;;;;;7.07;2.55;;;;;;;15.10;60.20;101550.13;5051364;28;20056;-73
2022/09/02 01:57:19;;;;;;;2.90;2.00;;;;;;;15.09;60.35;101546.63;5051524;28;20543;-73
2022/09/02 01:59:45;;;;;;;3.53;2.55;;;;;;;14.99;60.78;101542.56;5044704;28;20375;-73
2022/09/02 02:02:12;;;;;;;6.43;2.42;;;;;;;14.95;60.35;101543.59;5035875;28;20030;-73
2022/09/02 02:04:38;;;;;;;5.75;2.40;;;;;;;14.94;60.57;101542.72;5033870;28;20112;-73
2022/09/02 02:07:04;;;;;;;4.60;2.28;;;;;;;14.88;59.77;101544.69;5045706;28;20025;-73
2022/09/02 02:09:30;;;;;;;4.65;2.33;;;;;;;14.90;60.73;101551.59;5045913;28;20013;-73
2022/09/02 02:11:55;;;;;;;3.05;2.38;;;;;;;14.88;60.16;101548.16;5030639;28;20132;-73
2022/09/02 02:14:20;;;;;;;5.07;2.60;;;;;;;14.91;60.71;101544.56;5035483;28;20481;-73
2022/09/02 02:16:46;;;;;;;4.60;2.72;;;;;;;14.89;61.01;101547.25;5032775;28;20039;-73
2022/09/02 02:19:12;;;;;;;3.72;2.70;;;;;;;14.87;60.56;101541.16;5041995;28;20381;-73
2022/09/02 02:21:37;;;;;;;5.93;2.75;;;;;;;14.87;60.52;101543.78;5033376;28;20030;-73
2022/09/02 02:24:02;;;;;;;3.65;2.30;;;;;;;14.86;60.86;101543.84;5041888;28;20029;-73
2022/09/02 02:26:29;;;;;;;6.95;2.72;;;;;;;14.82;60.79;101542.25;5028749;28;20021;-73
2022/09/02 02:28:55;;;;;;;3.53;2.17;;;;;;;14.84;61.16;101538.63;5043059;28;20021;-73
2022/09/02 02:31:20;;;;;;;3.88;2.60;;;;;;;14.81;61.06;101533.47;5031351;28;20381;-73
2022/09/02 02:33:46;;;;;;;4.38;2.53;;;;;;;14.89;60.19;101541.13;5040782;28;20288;-73
2022/09/02 02:36:12;;;;;;;3.17;1.98;;;;;;;14.96;60.21;101540.03;5040011;28;20032;-73
2022/09/02 02:38:39;;;;;;;7.18;2.50;;;;;;;14.96;60.61;101542.66;5038466;28;20037;-73
2022/09/02 02:41:05;;;;;;;4.63;2.55;;;;;;;14.95;59.76;101536.56;5035220;28;20044;-73
2022/09/02 02:43:35;;;;;;;4.47;2.60;;;;;;;14.98;59.79;101535.63;5045291;28;20029;-73
2022/09/02 02:46:00;;;;;;;6.05;2.42;;;;;;;14.98;59.86;101525.13;5031043;28;20056;-73
2022/09/02 02:48:25;;;;;;;4.57;2.50;;;;;;;14.97;59.71;101533.88;5028535;28;20092;-73
2022/09/02 02:50:51;;;;;;;4.68;2.60;;;;;;;14.97;59.84;101536.50;5037602;28;20049;-73
2022/09/02 02:53:16;;;;;;;5.47;2.47;;;;;;;14.99;60.08;101532.06;5038038;28;20390;-73
2022/09/02 02:55:43;;;;;;;4.88;2.50;;;;;;;15.03;59.44;101527.59;5042592;28;20389;-73
2022/09/02 02:58:08;;;;;;;3.97;2.50;;;;;;;15.06;59.26;101532.75;5040773;28;20035;-73
2022/09/02 03:00:35;;;;;;;7.50;2.97;;;;;;;15.04;59.47;101530.19;5029035;28;20427;-73
2022/09/02 03:03:04;;;;;;;5.55;2.78;;;;;;;15.02;59.76;101521.47;5024142;28;20025;-73
2022/09/02 03:05:30;;;;;;;4.05;3.10;;;;;;;15.07;59.95;101531.81;5043005;28;20506;-73
2022/09/02 03:07:55;;;;;;;5.22;2.80;;;;;;;15.05;60.19;101521.38;5036057;28;20028;-73
2022/09/02 03:10:21;;;;;;;3.95;2.75;;;;;;;14.97;60.03;101524.22;5038797;28;20412;-73
2022/09/02 03:12:47;;;;;;;6.90;2.90;;;;;;;14.97;60.08;101518.97;5034021;28;20090;-73
2022/09/02 03:15:15;;;;;;;5.80;3.33;;;;;;;14.92;59.17;101525.31;5029339;28;20037;-73
2022/09/02 03:17:42;;;;;;;11.65;3.75;;;;;;;14.85;59.81;101521.16;5036500;28;20473;-73
2022/09/02 03:20:09;;;;;;;6.65;3.58;;;;;;;14.79;60.35;101521.31;5037800;28;20045;-73
2022/09/02 03:22:37;;;;;;;9.07;4.15;;;;;;;14.84;60.40;101527.28;5031924;28;20029;-73
2022/09/02 03:25:06;;;;;;;6.25;4.22;;;;;;;14.75;60.38;101520.56;5044983;28;20028;-73
2022/09/02 03:27:33;;;;;;;9.50;4.57;;;;;;;14.68;59.99;101519.88;5037714;28;20036;-73
2022/09/02 03:29:58;;;;;;;7.95;3.95;;;;;;;14.66;60.59;101524.31;5037261;28;20017;-73
2022/09/02 03:32:24;;;;;;;8.93;4.63;;;;;;;14.61;61.17;101512.22;5033393;28;20091;-73
2022/09/02 03:34:49;;;;;;;9.15;4.32;;;;;;;14.58;61.20;101514.94;5046907;28;20029;-73
2022/09/02 03:37:14;;;;;;;9.38;4.80;;;;;;;14.54;61.03;101514.16;5034377;28;20061;-73
2022/09/02 03:39:40;;;;;;;8.60;4.55;;;;;;;14.49;60.92;101516.06;5045700;28;20028;-73
2022/09/02 03:42:06;;;;;;;9.82;4.97;;;;;;;14.47;61.89;101512.59;5041915;28;20103;-73
2022/09/02 03:44:33;;;;;;;8.23;4.50;;;;;;;14.43;61.57;101503.97;5034733;28;20021;-73
2022/09/02 03:46:58;;;;;;;11.05;4.75;;;;;;;14.44;61.61;101504.81;5043840;28;20033;-73
2022/09/02 03:49:25;;;;;;;12.25;5.70;;;;;;;14.37;61.81;101501.50;5045447;28;20068;-73
2022/09/02 03:51:51;;;;;;;9.02;5.82;;;;;;;14.31;62.24;101506.06;5046526;28;20025;-73
2022/09/02 03:54:17;;;;;;;9.15;5.53;;;;;;;14.26;62.57;101501.81;5033808;28;20606;-73
2022/09/02 03:56:42;;;;;;;11.20;6.07;;;;;;;14.20;62.71;101503.75;5033606;28;20029;-73
2022/09/02 03:59:08;;;;;;;11.35;6.00;;;;;;;14.18;62.71;101501.16;5036749;28;20426;-73
2022/09/02 04:01:34;;;;;;;11.02;6.60;;;;;;;14.21;62.38;101493.22;5032361;28;20855;-73
2022/09/02 04:04:00;;;;;;;12.07;6.40;;;;;;;14.20;62.94;101499.38;5047505;28;20333;-73
2022/09/02 04:06:26;;;;;;;12.60;6.05;;;;;;;14.18;62.96;101502.94;5039287;28;20067;-73
2022/09/02 04:08:51;;;;;;;11.23;5.97;;;;;;;14.10;62.99;101497.91;5040917;28;20036;-73
2022/09/02 04:11:20;;;;;;;10.38;6.15;;;;;;;14.08;63.57;101502.31;5043047;28;20060;-73
2022/09/02 04:13:47;;;;;;;11.75;6.50;;;;;;;14.05;63.26;101503.25;5049742;28;20094;-73
2022/09/02 04:16:16;;;;;;;12.15;6.57;;;;;;;14.07;63.53;101490.13;5036311;28;20512;-73
2022/09/02 04:18:42;;;;;;;11.15;6.43;;;;;;;14.04;63.52;101492.84;5041881;28;20108;-73
2022/09/02 04:21:09;;;;;;;13.77;6.40;;;;;;;14.04;63.87;101490.22;5041087;28;20140;-72
2022/09/02 04:23:34;;;;;;;12.25;6.22;;;;;;;14.01;63.60;101492.91;5049674;28;20072;-73
2022/09/02 04:26:06;;;;;;;14.20;7.22;;;;;;;13.95;63.39;101486.06;5052397;28;20520;-73
2022/09/02 04:28:32;;;;;;;11.90;6.20;;;;;;;13.97;64.17;101481.66;5035988;28;20028;-73
2022/09/02 04:30:57;;;;;;;10.93;6.88;;;;;;;13.97;64.08;101484.28;5040046;28;20480;-73
2022/09/02 04:33:22;;;;;;;13.82;7.57;;;;;;;14.01;64.16;101487.69;5040057;28;20025;-72
2022/09/02 04:35:51;;;;;;;16.35;8.18;;;;;;;13.99;63.95;101487.69;5033007;28;20063;-73
2022/09/02 04:38:16;;;;;;;15.00;7.78;;;;;;;14.03;63.79;101484.13;5035809;28;20033;-72
2022/09/02 04:40:44;;;;;;;12.13;8.05;;;;;;;14.12;63.97;101475.13;5036534;28;20079;-73
2022/09/02 04:43:10;;;;;;;17.33;8.48;;;;;;;14.15;64.45;101476.78;5041902;28;20087;-72
2022/09/02 04:45:40;;;;;;;13.60;8.85;;;;;;;14.18;63.93;101481.94;5036810;28;20060;-73
2022/09/02 04:48:05;;;;;;;18.55;8.95;;;;;;;14.26;64.07;101480.00;5034944;28;20112;-73
2022/09/02 04:50:30;;;;;;;15.52;8.90;;;;;;;14.34;63.31;101479.75;5031226;28;20101;-73
2022/09/02 04:52:56;;;;;;;18.80;10.57;;;;;;;14.38;63.47;101482.22;5039555;28;20024;-73
2022/09/02 04:55:21;;;;;;;20.15;10.73;;;;;;;14.44;63.49;101483.81;5047913;28;20103;-73
2022/09/02 04:57:46;;;;;;;19.02;10.20;;;;;;;14.49;64.42;101481.94;5043395;28;20048;-73
2022/09/02 05:00:12;;;;;;;19.27;10.07;;;;;;;14.54;63.60;101487.06;5052664;28;20028;-73
2022/09/02 05:02:37;;;;;;;23.15;10.02;;;;;;;14.64;62.81;101478.88;5029986;28;20033;-73
2022/09/02 05:05:03;;;;;;;22.33;10.95;;;;;;;14.71;62.51;101484.78;5033445;28;20025;-73
2022/09/02 05:07:28;;;;;;;19.90;11.23;;;;;;;14.72;62.76;101479.53;5036660;28;20037;-73
2022/09/02 05:09:58;;;;;;;21.00;12.10;;;;;;;14.85;62.66;101482.63;5045757;28;20152;-73
2022/09/02 05:12:26;;;;;;;23.48;12.90;;;;;;;14.88;63.10;101482.53;5037560;28;20072;-73
2022/09/02 05:14:52;;;;;;;24.58;12.50;;;;;;;14.94;62.42;101482.34;5040442;28;20024;-73
2022/09/02 05:17:17;;;;;;;26.30;13.30;;;;;;;14.98;62.07;101483.97;5028665;28;20041;-73
2022/09/02 05:19:43;;;;;;;26.30;14.35;;;;;;;15.01;62.55;101475.13;5020010;28;20445;-73
2022/09/02 05:22:09;;;;;;;29.55;14.18;;;;;;;15.08;62.59;101478.41;5041359;28;20021;-73
2022/09/02 05:24:34;;;;;;;28.65;15.48;;;;;;;15.12;62.07;101490.53;5037486;28;20029;-73
2022/09/02 05:26:59;;;;;;;25.38;14.88;;;;;;;15.16;62.10;101476.38;5038646;28;20044;-73
2022/09/02 05:29:25;;;;;;;27.38;15.48;;;;;;;15.21;61.35;101483.22;5039553;28;20375;-73
2022/09/02 05:31:50;;;;;;;28.83;16.60;;;;;;;15.22;61.49;101487.56;5034340;28;20017;-73
2022/09/02 05:34:16;;;;;;;29.15;16.30;;;;;;;15.25;61.73;101489.22;5038572;28;20041;-73
2022/09/02 05:36:42;;;;;;;30.08;17.65;;;;;;;15.29;61.42;101484.72;5038144;28;20052;-73
2022/09/02 05:39:08;;;;;;;34.42;17.23;;;;;;;15.30;61.30;101473.31;5039549;28;20052;-73
2022/09/02 05:41:33;;;;;;;30.42;16.80;;;;;;;15.36;61.04;101478.34;5041635;28;20021;-73
2022/09/02 05:44:01;;;;;;;34.83;17.73;;;;;;;15.40;60.96;101485.22;5052002;28;20362;-73
2022/09/02 05:46:27;;;;;;;36.85;17.95;;;;;;;15.44;61.68;101482.47;5025480;28;20094;-73
2022/09/02 05:49:06;;;;;;;36.28;19.58;;;;;;;15.48;61.26;101480.59;5033018;28;20042;-73
2022/09/02 05:51:42;;;;;;;38.25;19.23;;;;;;;15.52;60.42;101484.81;5040743;28;20037;-73
2022/09/02 05:54:10;;;;;;;36.88;19.08;;;;;;;15.52;61.01;101484.81;5040332;28;20032;-73
2022/09/02 05:56:41;;;;;;;31.05;17.50;;;;;;;15.56;60.66;101480.31;5041930;28;20116;-73
2022/09/02 05:59:06;;;;;;;44.10;19.52;;;;;;;15.55;60.33;101475.97;5040074;28;20136;-73
2022/09/02 06:01:33;;;;;;;37.58;19.10;;;;;;;15.58;60.21;101475.88;5034876;28;20175;-72
2022/09/02 06:04:01;;;;;;;36.53;19.10;;;;;;;15.62;61.37;101480.09;5036336;28;20033;-72
2022/09/02 06:06:26;;;;;;;42.92;18.77;;;;;;;15.67;60.75;101473.81;5025988;28;20037;-72
2022/09/02 06:08:51;;;;;;;33.55;19.05;;;;;;;15.69;59.86;101471.13;5022609;28;20029;-73
2022/09/02 06:11:17;;;;;;;39.53;18.35;;;;;;;15.76;59.99;101483.19;5038049;28;20377;-73
2022/09/02 06:13:42;;;;;;;37.47;18.77;;;;;;;15.79;61.17;101482.19;5039085;28;20065;-73
2022/09/02 06:16:12;;;;;;;36.60;18.13;;;;;;;15.85;60.32;101484.59;5035284;28;20025;-73
2022/09/02 06:18:38;;;;;;;34.55;18.67;;;;;;;15.88;60.75;101487.13;5039335;28;20166;-72
2022/09/02 06:21:04;;;;;;;32.83;17.52;;;;;;;15.90;60.52;101475.66;5045191;28;20033;-73
2022/09/02 06:23:30;;;;;;;35.95;19.23;;;;;;;15.97;59.75;101478.91;5038036;28;20025;-73
2022/09/02 06:25:55;;;;;;;40.22;18.63;;;;;;;16.02;59.43;101484.88;5051537;28;20040;-73
2022/09/02 06:28:20;;;;;;;38.33;18.17;;;;;;;16.07;59.89;101480.28;5050024;28;20017;-72
2022/09/02 06:30:47;;;;;;;38.38;18.63;;;;;;;16.11;59.71;101466.09;5031769;28;20065;-73
2022/09/02 06:33:13;;;;;;;34.65;18.38;;;;;;;16.18;58.93;101472.00;5047840;28;20103;-73
2022/09/02 06:35:41;;;;;;;37.90;19.70;;;;;;;16.28;58.60;101469.88;5050415;28;20120;-73
2022/09/02 06:38:07;;;;;;;30.65;18.08;;;;;;;16.36;59.01;101473.97;5050949;28;20044;-73
2022/09/02 06:40:33;;;;;;;31.50;18.08;;;;;;;16.44;59.23;101478.94;5051166;28;20120;-73
2022/09/02 06:42:59;;;;;;;33.15;19.00;;;;;;;16.46;58.07;101473.63;5051038;28;20501;-73
2022/09/02 06:45:24;;;;;;;34.88;17.98;;;;;;;16.48;58.52;101469.13;5050591;28;20350;-73
2022/09/02 06:47:52;;;;;;;39.95;18.27;;;;;;;16.58;59.44;101474.00;5051164;28;20081;-73
2022/09/02 06:50:18;;;;;;;35.85;18.60;;;;;;;16.67;58.39;101475.41;5050349;28;20074;-73
2022/09/02 06:52:43;;;;;;;33.45;17.17;;;;;;;16.75;57.56;101467.28;5051148;28;20017;-73
2022/09/02 06:55:09;;;;;;;35.03;17.35;;;;;;;16.79;57.52;101456.53;5050743;28;20071;-73
2022/09/02 06:57:35;;;;;;;30.80;16.80;;;;;;;16.86;57.54;101472.97;5050348;28;20060;-73
2022/09/02 07:00:04;;;;;;;31.13;16.25;;;;;;;16.96;57.31;101465.56;5051171;28;20060;-73
2022/09/02 07:02:30;;;;;;;31.60;16.42;;;;;;;17.01;56.04;101458.34;5050658;28;20096;-73
2022/09/02 07:05:13;;;;;;;34.10;16.65;;;;;;;17.13;56.08;101462.22;5050774;28;20441;-73
2022/09/02 07:07:41;;;;;;;32.00;16.38;;;;;;;17.24;56.17;101462.66;5031239;28;20030;-73
2022/09/02 07:10:10;;;;;;;27.10;15.13;;;;;;;17.35;55.34;101465.69;5026751;28;20128;-73
2022/09/02 07:12:37;;;;;;;27.45;15.68;;;;;;;17.46;56.04;101452.94;5032047;28;20025;-73
2022/09/02 07:15:04;;;;;;;33.95;15.07;;;;;;;17.57;55.88;101459.53;5036181;28;20029;-73
2022/09/02 07:17:29;;;;;;;31.15;14.88;;;;;;;17.66;54.64;101457.34;5040868;28;20469;-74
2022/09/02 07:19:58;;;;;;;32.85;14.43;;;;;;;17.68;54.10;101458.13;5041096;28;20048;-74
2022/09/02 07:22:24;;;;;;;29.15;14.52;;;;;;;17.72;54.86;101453.56;5041679;28;20048;-74
2022/09/02 07:24:49;;;;;;;28.10;14.95;;;;;;;17.79;55.21;101452.44;5035453;28;20060;-73
2022/09/02 07:27:15;;;;;;;28.55;14.40;;;;;;;17.85;54.27;101454.78;5024404;28;20056;-73
2022/09/02 07:29:42;;;;;;;29.27;14.50;;;;;;;17.93;53.82;101443.91;5049847;28;20021;-74
2022/09/02 07:32:08;;;;;;;27.05;13.70;;;;;;;17.98;54.01;101437.50;5036534;28;20057;-73
2022/09/02 07:34:33;;;;;;;30.73;14.07;;;;;;;18.04;53.45;101446.91;5046430;28;20066;-74
2022/09/02 07:36:59;;;;;;;28.40;14.18;;;;;;;18.09;54.11;101447.56;5050769;28;20025;-74
2022/09/02 07:39:24;;;;;;;25.52;13.50;;;;;;;18.16;54.32;101448.16;5041833;28;20470;-73
2022/09/02 07:41:50;;;;;;;29.27;13.13;;;;;;;18.22;54.03;101443.44;5041503;28;20033;-74
2022/09/02 07:44:18;;;;;;;28.55;13.85;;;;;;;18.28;54.50;101446.72;5043208;28;20048;-74
2022/09/02 07:46:44;;;;;;;27.77;13.45;;;;;;;18.30;53.80;101442.22;5047566;28;20104;-74
2022/09/02 07:49:11;;;;;;;27.90;13.57;;;;;;;18.31;53.88;101446.56;5042886;28;20072;-74
2022/09/02 07:51:40;;;;;;;28.38;13.88;;;;;;;18.39;53.62;101447.94;5044097;28;20028;-74
2022/09/02 07:54:08;;;;;;;30.23;13.55;;;;;;;18.46;53.54;101448.50;5050565;28;20029;-74
2022/09/02 07:56:33;;;;;;;27.70;12.73;;;;;;;18.51;53.83;101437.72;5050065;28;20044;-74
2022/09/02 07:58:59;;;;;;;23.13;12.68;;;;;;;18.57;53.91;101438.28;5034256;28;20421;-74
2022/09/02 08:01:25;;;;;;;26.60;13.75;;;;;;;18.64;53.00;101438.88;5042797;28;20060;-74
2022/09/02 08:03:51;;;;;;;25.83;13.32;;;;;;;18.69;52.76;101444.78;5033376;28;20458;-74
2022/09/02 08:06:17;;;;;;;28.80;13.35;;;;;;;18.76;52.65;101446.22;5027005;28;20035;-74
2022/09/02 08:08:42;;;;;;;26.63;12.93;;;;;;;18.80;52.98;101450.47;5044869;28;20103;-74
2022/09/02 08:11:08;;;;;;;25.27;13.63;;;;;;;18.84;52.74;101445.88;5050479;28;20021;-74
2022/09/02 08:13:35;;;;;;;22.95;11.20;;;;;;;18.91;52.71;101440.22;5053062;28;20029;-74
2022/09/02 08:16:01;;;;;;;22.02;11.05;;;;;;;18.99;52.47;101428.41;5027545;28;20501;-74
2022/09/02 08:18:28;;;;;;;25.20;11.43;;;;;;;19.09;52.87;101438.44;5053578;28;20082;-74
2022/09/02 08:20:54;;;;;;;22.50;11.25;;;;;;;19.12;52.03;101432.16;5048505;28;20630;-74
2022/09/02 08:23:19;;;;;;;21.65;10.80;;;;;;;19.23;52.16;101443.06;5040757;28;20771;-74
2022/09/02 08:25:44;;;;;;;23.05;11.32;;;;;;;19.38;53.44;101425.53;5038577;28;20067;-73
2022/09/02 08:28:10;;;;;;;21.77;11.43;;;;;;;19.50;51.58;101429.38;5046198;28;20029;-74
2022/09/02 08:30:35;;;;;;;21.00;10.52;;;;;;;19.61;51.72;101433.16;5050939;28;20439;-73
2022/09/02 08:33:00;;;;;;;23.05;11.00;;;;;;;19.72;52.03;101434.41;5037076;28;20470;-73
2022/09/02 08:35:26;;;;;;;22.80;10.88;;;;;;;19.84;50.51;101428.47;5040971;28;20033;-73
2022/09/02 08:37:51;;;;;;;20.95;9.85;;;;;;;19.91;51.45;101426.34;5046422;28;20029;-74
2022/09/02 08:40:21;;;;;;;19.48;9.65;;;;;;;20.00;50.67;101423.22;5034560;28;20034;-74
2022/09/02 08:42:52;;;;;;;19.85;9.25;;;;;;;20.04;51.42;101419.47;5044272;28;20020;-73
2022/09/02 08:45:34;;;;;;;15.30;7.57;;;;;;;20.20;50.43;101428.28;5031943;28;20033;-73
2022/09/02 08:48:22;;;;;;;15.02;7.20;;;;;;;20.36;50.73;101436.25;5037601;28;20045;-74
2022/09/02 08:50:50;;;;;;;12.48;6.63;;;;;;;20.44;49.52;101423.47;5029488;28;20481;-74
2022/09/02 08:53:47;;;;;;;13.27;6.20;;;;;;;20.48;49.74;101421.50;5052675;28;20031;-74
2022/09/02 08:56:16;;;;;;;11.05;6.10;;;;;;;20.55;49.60;101428.19;5032843;28;20090;-73
2022/09/02 08:58:46;;;;;;;19.77;5.85;;;;;;;20.65;49.99;101421.41;5045968;28;20036;-74
2022/09/02 09:01:11;;;;;;;12.32;4.93;;;;;;;20.71;49.24;101423.72;5047567;28;20017;-74
2022/09/02 09:03:58;;;;;;;10.80;4.87;;;;;;;20.86;49.46;101421.13;5040712;28;20070;-74
2022/09/02 09:06:47;;;;;;;8.52;4.65;;;;;;;20.86;48.78;101423.78;5033310;28;20473;-74
2022/09/02 09:09:48;;;;;;;16.42;4.18;;;;;;;20.85;48.61;101435.34;5036750;28;20124;-74
2022/09/02 09:12:27;;;;;;;9.80;4.30;;;;;;;20.89;48.83;101431.56;4994115;28;20041;-74
2022/09/02 09:15:10;;;;;;;10.45;4.05;;;;;;;21.01;49.20;101429.06;5042260;28;20532;-74
2022/09/02 09:17:48;;;;;;;7.20;4.43;;;;;;;21.12;48.15;101431.06;5029002;28;20072;-73
2022/09/02 09:20:36;;;;;;;11.88;3.80;;;;;;;21.28;48.19;101426.56;5027611;28;20035;-74
2022/09/02 09:23:20;;;;;;;9.75;3.63;;;;;;;21.36;48.36;101427.97;5031946;28;20112;-74
2022/09/02 09:25:48;;;;;;;6.30;3.75;;;;;;;21.54;48.20;101418.06;5020053;28;20091;-78
2022/09/02 09:28:13;;;;;;;14.10;4.07;;;;;;;21.62;48.38;101415.81;5029241;28;20577;-76
2022/09/02 09:30:39;;;;;;;8.52;3.53;;;;;;;21.79;47.04;101420.06;5020925;28;20120;-77
2022/09/02 09:33:04;;;;;;;9.43;3.63;;;;;;;22.00;46.71;101412.56;5046312;28;20025;-78
2022/09/02 09:35:51;;;;;;;10.40;3.78;;;;;;;22.30;47.18;101416.00;5034898;28;20806;-76
2022/09/02 09:38:29;;;;;;;10.10;3.70;;;;;;;22.57;46.85;101407.22;5038722;28;20508;-76
2022/09/02 09:41:20;;;;;;;10.25;3.33;;;;;;;22.85;45.71;101408.91;5031956;28;20037;-77
2022/09/02 09:43:46;;;;;;;7.85;3.05;;;;;;;22.99;45.97;101403.56;5050692;28;20021;-76
2022/09/02 09:46:27;;;;;;;9.57;2.80;;;;;;;23.28;45.63;101403.38;5046301;28;20128;-77
2022/09/02 09:48:53;;;;;;;12.32;3.28;;;;;;;23.18;44.54;101403.16;5038689;28;20042;-75
2022/09/02 09:51:19;;;;;;;6.65;3.10;;;;;;;23.11;44.81;101397.41;5031211;28;20040;-75
2022/09/02 09:53:45;;;;;;;6.00;2.95;;;;;;;23.09;44.96;101399.31;5034201;28;20485;-75
2022/09/02 09:56:14;;;;;;;6.88;3.38;;;;;;;23.02;44.58;101400.69;5035866;28;20100;-74
2022/09/02 09:58:39;;;;;;;8.77;3.05;;;;;;;22.99;44.69;101408.88;5042178;28;20092;-75
2022/09/02 10:01:11;;;;;;;12.47;3.33;;;;;;;23.18;44.75;101392.50;5037004;28;20488;-75
2022/09/02 10:03:41;;;;;;;6.70;2.53;;;;;;;23.35;44.53;101389.56;5040175;28;20086;-76
2022/09/02 10:06:23;;;;;;;6.82;2.90;;;;;;;23.36;44.36;101385.09;5041234;28;20291;-75
2022/09/02 10:08:56;;;;;;;12.13;3.03;;;;;;;23.45;44.71;101383.63;5037650;28;20037;-75
2022/09/02 10:11:33;;;;;;;9.32;3.03;;;;;;;23.45;44.09;101383.63;5031977;28;20108;-73
2022/09/02 10:14:04;;;;;;;8.43;2.90;;;;;;;23.31;43.13;101376.56;5050908;28;20024;-73
2022/09/02 10:16:58;;;;;;;5.45;2.70;;;;;;;23.29;44.21;101386.50;5041652;28;20485;-73
2022/09/02 10:19:52;;;;;;;7.78;2.42;;;;;;;23.32;43.76;101376.47;5026487;28;20493;-73
2022/09/02 10:22:55;;;;;;;7.55;2.70;;;;;;;23.38;43.81;101377.88;5024190;28;20116;-73
2022/09/02 10:25:26;;;;;;;7.40;2.83;;;;;;;23.53;42.95;101376.81;5040938;28;20491;-77
2022/09/02 10:28:14;;;;;;;3.97;2.65;;;;;;;23.64;43.25;101369.88;5032751;28;20429;-77
2022/09/02 10:30:53;;;;;;;5.03;2.30;;;;;;;23.79;43.09;101363.50;5044913;28;20033;-77
2022/09/02 10:33:29;;;;;;;5.53;2.83;;;;;;;23.85;41.96;101360.41;5023105;28;20055;-77
2022/09/02 10:36:13;;;;;;;7.88;2.90;;;;;;;24.00;41.99;101364.66;5050424;28;20017;-77
2022/09/02 10:38:49;;;;;;;6.88;2.55;;;;;;;24.10;41.11;101364.84;5047213;28;20025;-76
2022/09/02 10:41:47;;;;;;;4.13;2.15;;;;;;;24.26;41.63;101353.91;5040117;28;20060;-77
2022/09/02 10:44:25;;;;;;;3.03;2.50;;;;;;;24.43;40.07;101353.56;5031934;28;20066;-77
2022/09/02 10:46:58;;;;;;;6.68;2.85;;;;;;;24.53;39.23;101357.25;5034768;28;20021;-76
2022/09/02 10:49:32;;;;;;;3.05;2.28;;;;;;;24.62;39.39;101346.84;5053903;28;20489;-77
2022/09/02 10:52:05;;;;;;;5.15;2.35;;;;;;;24.70;36.99;101339.16;5055001;28;20032;-76
2022/09/02 10:54:47;;;;;;;13.63;3.60;;;;;;;24.77;38.70;101338.56;5050036;28;20025;-77
2022/09/02 10:57:18;;;;;;;4.68;2.42;;;;;;;25.05;38.90;101332.94;5027218;28;20049;-76
2022/09/02 10:59:56;;;;;;;5.80;2.63;;;;;;;25.19;36.75;101346.09;5055191;28;20032;-76
2022/09/02 11:02:37;;;;;;;5.35;2.15;;;;;;;25.27;36.93;101335.69;5053857;28;20125;-76
2022/09/02 11:05:16;;;;;;;3.50;2.42;;;;;;;25.35;36.47;101317.25;5039062;28;20025;-77
2022/09/02 11:08:19;;;;;;;8.02;2.42;;;;;;;25.61;36.37;101323.22;5034415;28;20111;-77
2022/09/02 11:11:04;;;;;;;9.20;2.47;;;;;;;25.78;35.79;101319.19;5034290;28;20021;-77
2022/09/02 11:13:37;;;;;;;6.05;2.50;;;;;;;25.85;35.50;101315.09;5034375;28;20469;-77
2022/09/02 11:16:13;;;;;;;4.90;2.20;;;;;;;26.06;35.65;101301.84;5032960;28;20041;-76
2022/09/02 11:18:57;;;;;;;4.43;2.10;;;;;;;26.27;34.58;101309.91;5033482;28;20037;-77
2022/09/02 11:21:25;;;;;;;4.07;2.45;;;;;;;26.42;32.88;101302.41;5033141;28;20030;-77
2022/09/02 11:24:02;;;;;;;3.42;2.08;;;;;;;26.50;31.34;101309.84;5034116;28;20025;-77
2022/09/02 11:26:55;;;;;;;4.93;2.20;;;;;;;26.62;33.22;101300.81;5033278;28;20040;-77
2022/09/02 11:29:31;;;;;;;6.93;2.10;;;;;;;26.82;31.79;101299.97;5033703;28;20025;-77